createdAt,value
2019-01-26T00:01:39.191Z,94806.70
2019-01-26T00:05:22.507Z,94799.50
2019-01-26T00:09:05.514Z,94800.53
2019-01-26T00:12:29.489Z,94792.86
2019-01-26T00:15:53.816Z,94795.44
2019-01-26T00:22:47.572Z,94783.22
2019-01-26T00:26:11.541Z,94786.62
2019-01-26T00:29:35.762Z,94782.96
2019-01-26T00:33:00.075Z,94783.58
2019-01-26T00:39:53.978Z,94780.94
2019-01-26T00:43:18.199Z,94778.91
2019-01-26T00:46:42.168Z,94786.51
2019-01-26T00:50:26.934Z,94775.97
2019-01-26T00:57:52.869Z,94783.53
2019-01-26T01:04:46.605Z,94783.34
2019-01-26T01:08:29.599Z,94785.77
2019-01-26T01:11:53.583Z,94784.48
2019-01-26T01:15:38.353Z,94781.82
2019-01-26T01:19:21.608Z,94772.16
2019-01-26T01:23:04.934Z,94757.52
2019-01-26T01:26:28.894Z,94748.56
2019-01-26T01:29:52.875Z,94740.23
2019-01-26T01:33:35.874Z,94735.98
2019-01-26T01:36:59.846Z,94718.53
2019-01-26T01:40:23.820Z,94709.59
2019-01-26T01:43:48.071Z,94713.02
2019-01-26T01:47:05.505Z,94711.75
2019-01-26T01:50:29.474Z,94700.86
2019-01-26T01:57:36.603Z,94683.84
2019-01-26T02:01:12.753Z,94673.92
2019-01-26T02:04:26.591Z,94679.23
2019-01-26T02:07:50.759Z,94687.25
2019-01-26T02:11:14.742Z,94685.93
2019-01-26T02:14:38.730Z,94687.17
2019-01-26T02:18:03.052Z,94676.13
2019-01-26T02:21:27.030Z,94674.77
2019-01-26T02:24:51.000Z,94672.71
2019-01-26T02:28:14.981Z,94673.41
2019-01-26T02:31:38.959Z,94668.58
2019-01-26T02:35:03.292Z,94669.41
2019-01-26T02:38:27.297Z,94662.73
2019-01-26T02:41:51.541Z,94657.86
2019-01-26T02:49:12.150Z,94639.95
2019-01-26T02:52:36.129Z,94633.45
2019-01-26T02:56:00.103Z,94613.98
2019-01-26T02:59:24.321Z,94621.55
2019-01-26T03:02:48.299Z,94614.53
2019-01-26T03:06:12.599Z,94615.58
2019-01-26T03:09:36.633Z,94612.98
2019-01-26T03:13:00.607Z,94608.31
2019-01-26T03:16:24.651Z,94604.73
2019-01-26T03:27:06.264Z,94589.95
2019-01-26T03:30:30.236Z,94586.58
2019-01-26T03:33:54.198Z,94589.98
2019-01-26T03:37:18.170Z,94584.81
2019-01-26T03:40:42.143Z,94588.48
2019-01-26T03:44:06.120Z,94590.08
2019-01-26T03:47:22.669Z,94585.95
2019-01-26T03:50:46.662Z,94578.40
2019-01-26T03:54:10.638Z,94555.02
2019-01-26T03:57:34.609Z,94561.79
2019-01-26T04:05:02.156Z,94566.74
2019-01-26T04:08:26.187Z,94552.45
2019-01-26T04:11:50.154Z,94571.44
2019-01-26T04:15:33.530Z,94556.88
2019-01-26T04:18:57.841Z,94559.48
2019-01-26T04:22:21.807Z,94550.34
2019-01-26T04:25:45.814Z,94549.82
2019-01-26T04:29:11.450Z,94536.27
2019-01-26T04:32:35.483Z,94541.23
2019-01-26T04:36:18.729Z,94535.24
2019-01-26T04:39:42.734Z,94540.44
2019-01-26T04:43:25.819Z,94531.33
2019-01-26T04:46:49.842Z,94536.00
2019-01-26T04:57:53.511Z,94529.51
2019-01-26T05:01:17.794Z,94523.79
2019-01-26T05:04:42.085Z,94520.10
2019-01-26T05:08:06.049Z,94524.81
2019-01-26T05:11:30.054Z,94521.95
2019-01-26T05:14:54.071Z,94520.89
2019-01-26T05:18:18.046Z,94513.86
2019-01-26T05:21:42.048Z,94510.73
2019-01-26T05:25:06.598Z,94508.13
2019-01-26T05:28:30.568Z,94496.93
2019-01-26T05:31:54.868Z,94496.41
2019-01-26T05:35:19.006Z,94483.66
2019-01-26T05:45:38.577Z,94495.67
2019-01-26T05:48:55.291Z,94503.47
2019-01-26T05:59:17.918Z,94488.67
2019-01-26T06:03:01.349Z,94483.97
2019-01-26T06:06:25.596Z,94486.58
2019-01-26T06:09:49.830Z,94481.09
2019-01-26T06:13:26.281Z,94483.69
2019-01-26T06:16:39.937Z,94483.13
2019-01-26T06:23:54.613Z,94480.48
2019-01-26T06:27:37.938Z,94474.75
2019-01-26T06:31:01.909Z,94475.50
2019-01-26T06:34:25.898Z,94481.98
2019-01-26T06:37:49.905Z,94480.09
2019-01-26T06:41:14.189Z,94479.83
2019-01-26T06:48:14.355Z,94475.88
2019-01-26T06:59:01.525Z,94467.20
2019-01-26T07:02:44.609Z,94476.06
2019-01-26T07:06:27.646Z,94481.72
2019-01-26T07:09:51.679Z,94485.54
2019-01-26T07:17:05.644Z,94498.27
2019-01-26T07:20:29.863Z,94493.78
2019-01-26T07:23:53.833Z,94487.47
2019-01-26T07:27:18.002Z,94488.24
2019-01-26T07:31:01.012Z,94488.95
2019-01-26T07:37:55.872Z,94484.99
2019-01-26T07:45:03.790Z,94482.25
2019-01-26T07:48:20.718Z,94482.59
2019-01-26T07:52:03.832Z,94487.23
2019-01-26T07:55:27.785Z,94487.41
2019-01-26T08:02:40.777Z,94488.08
2019-01-26T08:06:04.989Z,94488.03
2019-01-26T08:09:29.346Z,94496.05
2019-01-26T08:20:33.455Z,94484.27
2019-01-26T08:23:57.691Z,94488.91
2019-01-26T08:34:41.895Z,94484.47
2019-01-26T08:38:06.209Z,94487.75
2019-01-26T08:41:30.169Z,94493.60
2019-01-26T08:44:54.370Z,94491.47
2019-01-26T08:48:11.051Z,94496.97
2019-01-26T08:51:35.004Z,94502.33
2019-01-26T08:54:59.216Z,94508.98
2019-01-26T09:09:14.422Z,94505.33
2019-01-26T09:16:42.180Z,94498.50
2019-01-26T09:20:27.213Z,94497.47
2019-01-26T09:23:51.468Z,94494.52
2019-01-26T09:27:15.746Z,94490.00
2019-01-26T09:30:39.707Z,94493.06
2019-01-26T09:34:04.006Z,94494.25
2019-01-26T09:37:27.965Z,94499.20
2019-01-26T09:40:52.280Z,94496.59
2019-01-26T09:44:35.650Z,94503.50
2019-01-26T09:47:52.131Z,94501.88
2019-01-26T09:54:59.292Z,94511.06
2019-01-26T09:58:23.562Z,94508.48
2019-01-26T10:01:48.005Z,94513.94
2019-01-26T10:05:12.157Z,94515.88
2019-01-26T10:08:36.174Z,94518.83
2019-01-26T10:12:19.475Z,94525.16
2019-01-26T10:16:02.783Z,94526.41
2019-01-26T10:19:27.194Z,94520.11
2019-01-26T10:22:51.580Z,94519.80
2019-01-26T10:26:34.580Z,94519.32
2019-01-26T10:29:58.791Z,94513.15
2019-01-26T10:33:23.069Z,94512.23
2019-01-26T10:47:36.026Z,94510.02
2019-01-26T10:51:00.193Z,94493.47
2019-01-26T10:54:25.694Z,94484.59
2019-01-26T11:01:19.163Z,94474.68
2019-01-26T11:05:02.189Z,94477.94
2019-01-26T11:08:26.161Z,94469.38
2019-01-26T11:11:50.126Z,94464.14
2019-01-26T11:15:14.790Z,94472.39
2019-01-26T11:18:38.849Z,94464.52
2019-01-26T11:22:02.912Z,94461.48
2019-01-26T11:25:27.215Z,94462.91
2019-01-26T11:28:51.184Z,94451.84
2019-01-26T11:32:15.429Z,94451.19
2019-01-26T11:39:22.562Z,94445.76
2019-01-26T11:43:00.019Z,94445.30
2019-01-26T11:49:40.049Z,94434.73
2019-01-26T11:56:54.074Z,94420.08
2019-01-26T12:00:59.558Z,94406.59
2019-01-26T12:04:41.404Z,94405.90
2019-01-26T12:08:05.544Z,94399.80
2019-01-26T12:15:32.993Z,94397.64
2019-01-26T12:18:57.285Z,94386.77
2019-01-26T12:29:54.397Z,94365.55
2019-01-26T12:33:18.545Z,94364.53
2019-01-26T12:36:42.872Z,94347.43
2019-01-26T12:40:27.879Z,94355.33
2019-01-26T12:43:52.263Z,94352.73
2019-01-26T12:47:16.795Z,94350.95
2019-01-26T12:50:35.699Z,94339.76
2019-01-26T12:53:59.707Z,94341.19
2019-01-26T12:57:23.974Z,94335.23
2019-01-26T13:00:48.259Z,94331.52
2019-01-26T13:04:12.230Z,94320.25
2019-01-26T13:07:36.531Z,94322.78
2019-01-26T13:11:21.287Z,94327.92
2019-01-26T13:14:45.599Z,94320.81
2019-01-26T13:18:09.621Z,94318.09
2019-01-26T13:21:33.606Z,94312.69
2019-01-26T13:24:57.831Z,94317.01
2019-01-26T13:28:22.153Z,94318.88
2019-01-26T13:31:46.298Z,94319.81
2019-01-26T13:39:00.744Z,94314.22
2019-01-26T13:42:24.995Z,94321.72
2019-01-26T13:45:49.020Z,94322.80
2019-01-26T13:49:05.811Z,94326.98
2019-01-26T13:52:29.782Z,94319.62
2019-01-26T13:55:53.763Z,94324.45
2019-01-26T13:59:17.744Z,94326.30
2019-01-26T14:02:41.701Z,94322.89
2019-01-26T14:06:06.056Z,94324.66
2019-01-26T14:09:30.053Z,94327.77
2019-01-26T14:16:37.322Z,94317.69
2019-01-26T14:20:01.304Z,94325.83
2019-01-26T14:23:25.530Z,94322.83
2019-01-26T14:26:50.055Z,94316.92
2019-01-26T14:30:36.444Z,94317.49
2019-01-26T14:34:00.463Z,94317.09
2019-01-26T14:37:24.492Z,94318.50
2019-01-26T14:40:48.464Z,94328.23
2019-01-26T14:44:12.736Z,94317.70
2019-01-26T14:47:29.212Z,94323.04
2019-01-26T14:50:53.322Z,94319.48
2019-01-26T14:58:00.397Z,94325.03
2019-01-26T15:01:24.715Z,94324.32
2019-01-26T15:08:18.572Z,94312.27
2019-01-26T15:11:42.839Z,94313.40
2019-01-26T15:15:27.679Z,94308.77
2019-01-26T15:18:51.685Z,94310.13
2019-01-26T15:22:15.656Z,94302.84
2019-01-26T15:25:39.897Z,94303.23
2019-01-26T15:36:57.747Z,94294.06
2019-01-26T15:44:12.320Z,94289.55
2019-01-26T15:47:29.294Z,94293.55
2019-01-26T15:50:53.439Z,94289.09
2019-01-26T15:54:17.888Z,94291.61
2019-01-26T15:57:41.820Z,94287.03
2019-01-26T16:01:26.815Z,94276.60
2019-01-26T16:04:50.780Z,94272.56
2019-01-26T16:08:14.844Z,94274.06
2019-01-26T16:11:38.849Z,94278.20
2019-01-26T16:15:03.122Z,94282.78
2019-01-26T16:21:56.783Z,94273.68
2019-01-26T16:25:21.015Z,94267.23
2019-01-26T16:28:44.987Z,94262.11
2019-01-26T16:32:09.138Z,94254.05
2019-01-26T16:35:52.440Z,94252.29
2019-01-26T16:39:16.473Z,94255.20
2019-01-26T16:46:10.110Z,94255.45
2019-01-26T16:49:27.232Z,94255.53
2019-01-26T16:52:51.263Z,94251.20
2019-01-26T16:59:44.966Z,94250.05
2019-01-26T17:03:09.506Z,94241.64
2019-01-26T17:06:52.605Z,94238.72
2019-01-26T17:10:37.597Z,94239.92
2019-01-26T17:14:01.904Z,94239.20
2019-01-26T17:17:25.872Z,94243.86
2019-01-26T17:20:50.164Z,94240.70
2019-01-26T17:24:14.457Z,94236.77
2019-01-26T17:31:09.680Z,94232.27
2019-01-26T17:34:35.471Z,94225.84
2019-01-26T17:38:18.545Z,94222.52
2019-01-26T17:42:01.555Z,94224.61
2019-01-26T17:49:22.005Z,94214.38
2019-01-26T17:56:36.714Z,94199.84
2019-01-26T18:00:00.687Z,94193.82
2019-01-26T18:03:43.773Z,94197.30
2019-01-26T18:07:26.886Z,94188.02
2019-01-26T18:14:54.530Z,94178.75
2019-01-26T18:18:18.648Z,94180.45
2019-01-26T18:28:57.013Z,94179.63
2019-01-26T18:32:21.271Z,94167.67
2019-01-26T18:36:04.527Z,94169.23
2019-01-26T18:39:28.488Z,94158.25
2019-01-26T18:42:52.620Z,94157.02
2019-01-26T18:46:16.834Z,94158.14
2019-01-26T18:49:33.549Z,94156.73
2019-01-26T18:52:57.527Z,94146.81
2019-01-26T18:56:21.990Z,94147.97
2019-01-26T19:03:54.249Z,94142.58
2019-01-26T19:07:37.564Z,94142.80
2019-01-26T19:11:20.824Z,94144.55
2019-01-26T19:25:25.961Z,94123.27
2019-01-26T19:28:43.418Z,94125.30
2019-01-26T19:32:07.645Z,94116.91
2019-01-26T19:35:31.701Z,94102.88
2019-01-26T19:38:55.727Z,94106.41
2019-01-26T19:42:19.924Z,94102.53
2019-01-26T19:45:44.145Z,94096.73
2019-01-26T19:49:00.765Z,94094.37
2019-01-26T19:56:07.669Z,94089.33
2019-01-26T19:59:31.931Z,94092.39
2019-01-26T20:02:55.881Z,94092.77
2019-01-26T20:06:19.841Z,94084.74
2019-01-26T20:09:44.203Z,94081.10
2019-01-26T20:13:40.155Z,94080.78
2019-01-26T20:16:53.367Z,94073.41
2019-01-26T20:20:39.331Z,94069.20
2019-01-26T20:31:23.585Z,94068.80
2019-01-26T20:34:47.640Z,94059.33
2019-01-26T20:38:11.910Z,94061.94
2019-01-26T20:41:35.885Z,94059.49
2019-01-26T20:44:59.854Z,94059.70
2019-01-26T20:48:16.613Z,94047.13
2019-01-26T20:51:40.599Z,94044.48
2019-01-26T20:58:55.466Z,94046.48
2019-01-26T21:02:00.129Z,94041.61
2019-01-26T21:05:24.373Z,94035.39
2019-01-26T21:08:48.350Z,94029.14
2019-01-26T21:12:12.315Z,94033.21
2019-01-26T21:15:36.323Z,94026.33
2019-01-26T21:19:00.515Z,94017.05
2019-01-26T21:22:24.805Z,94022.22
2019-01-26T21:25:48.803Z,94014.19
2019-01-26T21:29:12.774Z,94014.48
2019-01-26T21:36:06.691Z,94011.00
2019-01-26T21:39:30.888Z,94013.84
2019-01-26T21:43:13.963Z,94002.61
2019-01-26T21:46:38.290Z,93996.53
2019-01-26T21:49:54.894Z,93993.55
2019-01-26T21:53:18.868Z,93990.09
2019-01-26T21:56:43.112Z,93990.13
2019-01-26T22:00:27.744Z,93979.56
2019-01-26T22:03:51.950Z,93979.97
2019-01-26T22:07:15.944Z,93981.17
2019-01-26T22:10:39.966Z,93966.70
2019-01-26T22:14:04.282Z,93964.45
2019-01-26T22:17:28.261Z,93961.31
2019-01-26T22:20:52.487Z,93961.53
2019-01-26T22:24:16.523Z,93962.14
2019-01-26T22:27:40.992Z,93958.52
2019-01-26T22:31:04.964Z,93953.70
2019-01-26T22:34:41.089Z,93943.89
2019-01-26T22:38:14.269Z,93939.56
2019-01-26T22:41:38.257Z,93926.68
2019-01-26T22:45:02.281Z,93926.96
2019-01-26T22:48:20.171Z,93913.91
2019-01-26T22:51:44.433Z,93914.53
2019-01-26T22:55:30.585Z,93901.59
2019-01-26T22:58:55.197Z,93897.95
2019-01-26T23:02:19.320Z,93889.48
2019-01-26T23:06:22.155Z,93882.68
2019-01-26T23:10:06.957Z,93877.74
2019-01-26T23:17:59.718Z,93865.89
2019-01-26T23:22:02.296Z,93858.73
2019-01-26T23:26:04.814Z,93855.47
2019-01-26T23:30:07.600Z,93836.44
2019-01-26T23:33:31.581Z,93833.50
2019-01-26T23:36:55.558Z,93823.11
2019-01-26T23:40:19.839Z,93822.30
2019-01-26T23:44:02.915Z,93812.97
2019-01-26T23:47:27.147Z,93796.52
2019-01-26T23:50:44.311Z,93794.30
2019-01-26T23:54:27.624Z,93783.94
2019-01-26T23:57:51.600Z,93775.05
